Time;durP1;ratioP1;P1;durP2;ratioP2;P2;SDS_P1;SDS_P2;PMS_P1;PMS_P2;Temp;Humidity;BMP_temperature;BMP_pressure;BME280_temperature;BME280_humidity;BME280_pressure;Samples;Min_cycle;Max_cycle;Signal;HPM_P1;HPM_P2
2023/01/08 00:00:04;;;;;;;0.88;0.88;;;;;;;;;;5076821;28;20078;-95
2023/01/08 00:02:30;;;;;;;1.27;1.27;;;;;;;;;;5080605;28;20048;-96
2023/01/08 00:04:57;;;;;;;1.33;1.33;;;;;;;;;;5082061;28;20059;-96
2023/01/08 00:07:24;;;;;;;1.17;1.17;;;;;;;;;;5085823;28;20059;-96
2023/01/08 00:09:51;;;;;;;0.90;0.90;;;;;;;;;;5087736;28;20078;-96
2023/01/08 00:12:18;;;;;;;0.70;0.70;;;;;;;;;;5081074;28;20048;-95
2023/01/08 00:14:44;;;;;;;1.33;1.25;;;;;;;;;;5075835;28;20090;-94
2023/01/08 00:17:12;;;;;;;1.08;0.93;;;;;;;;;;5074960;28;20065;-95
2023/01/08 00:19:40;;;;;;;0.77;0.77;;;;;;;;;;5075778;28;20048;-94
2023/01/08 00:22:07;;;;;;;0.40;0.40;;;;;;;;;;5075490;28;20057;-95
2023/01/08 00:24:33;;;;;;;2.83;1.73;;;;;;;;;;5075335;28;20094;-94
2023/01/08 00:27:00;;;;;;;0.57;0.57;;;;;;;;;;5075487;28;20052;-94
2023/01/08 00:29:26;;;;;;;0.65;0.65;;;;;;;;;;5075110;28;20557;-94
2023/01/08 00:31:53;;;;;;;1.25;0.93;;;;;;;;;;5075213;28;20049;-94
2023/01/08 00:34:21;;;;;;;1.15;1.10;;;;;;;;;;5075358;28;20094;-94
2023/01/08 00:36:47;;;;;;;1.85;1.75;;;;;;;;;;5074577;28;20538;-94
2023/01/08 00:39:14;;;;;;;3.88;3.78;;;;;;;;;;5074874;28;20405;-94
2023/01/08 00:41:43;;;;;;;0.80;0.77;;;;;;;;;;5074840;28;20558;-94
2023/01/08 00:44:10;;;;;;;0.88;0.88;;;;;;;;;;5074838;28;20602;-94
2023/01/08 00:46:36;;;;;;;5.18;4.88;;;;;;;;;;5074879;28;20428;-95
2023/01/08 00:49:03;;;;;;;2.00;1.83;;;;;;;;;;5074829;28;20056;-94
2023/01/08 00:51:31;;;;;;;3.50;2.88;;;;;;;;;;5074845;28;20052;-95
2023/01/08 00:53:57;;;;;;;0.88;0.88;;;;;;;;;;5074636;28;20048;-95
2023/01/08 00:56:24;;;;;;;0.70;0.70;;;;;;;;;;5074721;28;20044;-95
2023/01/08 00:58:50;;;;;;;1.08;1.08;;;;;;;;;;5075012;28;20106;-95
2023/01/08 01:01:17;;;;;;;0.82;0.82;;;;;;;;;;5074870;28;20110;-93
2023/01/08 01:03:43;;;;;;;4.00;3.63;;;;;;;;;;5074838;28;20061;-94
2023/01/08 01:06:11;;;;;;;1.83;1.73;;;;;;;;;;5076220;28;20075;-95
2023/01/08 01:08:39;;;;;;;0.88;0.88;;;;;;;;;;5075296;28;20075;-95
2023/01/08 01:11:06;;;;;;;0.85;0.85;;;;;;;;;;5074985;28;20491;-95
2023/01/08 01:13:33;;;;;;;1.52;1.42;;;;;;;;;;5076174;28;20061;-96
2023/01/08 01:16:00;;;;;;;1.40;1.35;;;;;;;;;;5077422;28;20450;-95
2023/01/08 01:18:27;;;;;;;1.40;1.30;;;;;;;;;;5078811;28;20048;-96
2023/01/08 01:20:53;;;;;;;1.33;1.33;;;;;;;;;;5079144;28;20048;-96
2023/01/08 01:23:20;;;;;;;0.57;0.57;;;;;;;;;;5081589;28;20052;-96
2023/01/08 01:25:48;;;;;;;1.38;1.27;;;;;;;;;;5078937;28;20072;-96
2023/01/08 01:28:16;;;;;;;0.55;0.55;;;;;;;;;;5076450;28;20181;-96
2023/01/08 01:30:42;;;;;;;0.52;0.52;;;;;;;;;;5075081;28;20127;-96
2023/01/08 01:33:09;;;;;;;0.50;0.50;;;;;;;;;;5074604;28;20106;-96
2023/01/08 01:35:35;;;;;;;1.05;1.05;;;;;;;;;;5074078;28;20041;-95
2023/01/08 01:38:02;;;;;;;0.80;0.80;;;;;;;;;;5074736;28;20514;-95
2023/01/08 01:40:28;;;;;;;6.00;5.80;;;;;;;;;;5074175;28;20397;-96
2023/01/08 01:42:57;;;;;;;1.48;1.38;;;;;;;;;;5075901;28;20049;-96
2023/01/08 01:45:25;;;;;;;0.93;0.93;;;;;;;;;;5077288;28;20101;-96
2023/01/08 01:47:54;;;;;;;1.05;1.05;;;;;;;;;;5077040;28;20059;-96
2023/01/08 01:50:23;;;;;;;0.73;0.70;;;;;;;;;;5077247;28;20045;-96
2023/01/08 01:52:52;;;;;;;1.92;1.83;;;;;;;;;;5078051;28;20049;-96
2023/01/08 01:55:18;;;;;;;1.33;1.33;;;;;;;;;;5078667;28;20055;-96
2023/01/08 03:49:11;;;;;;;1.23;1.13;;;;;;;;;;5840357;22;20053;-96
2023/01/08 03:51:41;;;;;;;1.65;1.55;;;;;;;;;;5058743;28;20045;-96
2023/01/08 03:54:09;;;;;;;4.43;4.22;;;;;;;;;;5057618;28;20090;-96
2023/01/08 03:56:35;;;;;;;1.25;1.23;;;;;;;;;;5057249;28;20455;-96
2023/01/08 03:59:02;;;;;;;2.38;0.75;;;;;;;;;;5057720;28;20493;-96
2023/01/08 04:01:29;;;;;;;0.28;0.28;;;;;;;;;;5057649;28;20059;-96
2023/01/08 04:03:55;;;;;;;0.80;0.73;;;;;;;;;;5057848;28;20052;-94
2023/01/08 04:06:23;;;;;;;1.02;1.02;;;;;;;;;;5056103;28;20448;-94
2023/01/08 04:08:50;;;;;;;0.75;0.75;;;;;;;;;;5055732;28;20060;-94
2023/01/08 04:11:17;;;;;;;0.57;0.38;;;;;;;;;;5056198;28;20056;-94
2023/01/08 04:13:43;;;;;;;1.63;1.52;;;;;;;;;;5055716;28;20539;-94
2023/01/08 04:16:10;;;;;;;3.08;2.95;;;;;;;;;;5055530;28;20455;-93
2023/01/08 04:18:36;;;;;;;1.55;1.45;;;;;;;;;;5055442;28;20106;-93
2023/01/08 04:21:03;;;;;;;2.38;2.28;;;;;;;;;;5055468;28;20045;-93
2023/01/08 04:23:31;;;;;;;0.68;0.68;;;;;;;;;;5055811;28;20053;-93
2023/01/08 04:25:57;;;;;;;0.60;0.60;;;;;;;;;;5056124;28;20382;-94
2023/01/08 04:28:24;;;;;;;2.05;1.95;;;;;;;;;;5056670;28;20439;-96
2023/01/08 04:30:51;;;;;;;0.98;0.98;;;;;;;;;;5062605;28;20045;-95
2023/01/08 04:33:18;;;;;;;1.17;1.17;;;;;;;;;;5058372;28;20051;-95
2023/01/08 04:35:44;;;;;;;0.73;0.73;;;;;;;;;;5056109;28;20045;-95
2023/01/08 04:38:11;;;;;;;1.17;1.17;;;;;;;;;;5055940;28;20051;-95
2023/01/08 04:40:39;;;;;;;0.43;0.43;;;;;;;;;;5055537;28;20045;-95
2023/01/08 04:43:05;;;;;;;0.52;0.52;;;;;;;;;;5055649;28;20041;-95
2023/01/08 04:45:32;;;;;;;1.27;1.27;;;;;;;;;;5055448;28;20106;-95
2023/01/08 04:47:59;;;;;;;2.67;2.50;;;;;;;;;;5058771;28;20114;-95
2023/01/08 04:50:26;;;;;;;0.70;0.70;;;;;;;;;;5055458;28;20061;-95
2023/01/08 04:52:53;;;;;;;2.75;1.83;;;;;;;;;;5055440;28;20041;-95
2023/01/08 04:55:20;;;;;;;0.55;0.55;;;;;;;;;;5055340;28;20049;-95
2023/01/08 04:57:47;;;;;;;0.70;0.70;;;;;;;;;;5055239;28;20049;-95
2023/01/08 05:00:14;;;;;;;0.98;0.98;;;;;;;;;;5055516;28;20102;-94
2023/01/08 05:02:41;;;;;;;4.13;1.60;;;;;;;;;;5055097;28;20049;-94
2023/01/08 05:05:08;;;;;;;0.73;0.73;;;;;;;;;;5055394;28;20048;-94
2023/01/08 05:07:34;;;;;;;1.40;1.10;;;;;;;;;;5055257;28;20129;-94
2023/01/08 05:10:01;;;;;;;2.15;2.05;;;;;;;;;;5054878;28;20045;-95
2023/01/08 05:12:28;;;;;;;0.43;0.43;;;;;;;;;;5054695;28;20497;-95
2023/01/08 05:14:56;;;;;;;3.03;2.83;;;;;;;;;;5054784;28;20071;-94
2023/01/08 05:17:22;;;;;;;0.60;0.60;;;;;;;;;;5054473;28;20060;-94
2023/01/08 05:19:49;;;;;;;1.08;1.08;;;;;;;;;;5055154;28;20056;-94
2023/01/08 05:22:15;;;;;;;1.83;1.73;;;;;;;;;;5054859;28;20053;-94
2023/01/08 05:24:42;;;;;;;2.97;2.40;;;;;;;;;;5054346;28;20044;-94
2023/01/08 05:27:09;;;;;;;1.65;1.55;;;;;;;;;;5054318;28;20102;-94
2023/01/08 05:29:35;;;;;;;1.35;1.35;;;;;;;;;;5054663;28;20397;-94
2023/01/08 05:32:03;;;;;;;0.55;0.55;;;;;;;;;;5054386;28;20086;-93
2023/01/08 05:34:29;;;;;;;1.08;1.08;;;;;;;;;;5054370;28;20053;-92
2023/01/08 05:36:56;;;;;;;1.05;1.05;;;;;;;;;;5054522;28;20044;-93
2023/01/08 05:39:23;;;;;;;1.30;1.20;;;;;;;;;;5054134;28;20138;-93
2023/01/08 05:41:49;;;;;;;1.73;1.63;;;;;;;;;;5054206;28;20095;-92
2023/01/08 05:44:16;;;;;;;2.22;2.13;;;;;;;;;;5054343;28;20056;-92
2023/01/08 05:46:42;;;;;;;2.63;2.42;;;;;;;;;;5053819;28;20044;-93
2023/01/08 05:49:10;;;;;;;1.30;1.20;;;;;;;;;;5053914;28;20103;-94
2023/01/08 05:51:37;;;;;;;0.45;0.45;;;;;;;;;;5054261;28;20488;-94
2023/01/08 05:54:03;;;;;;;0.75;0.75;;;;;;;;;;5054879;28;20489;-93
2023/01/08 05:56:30;;;;;;;1.73;1.65;;;;;;;;;;5056608;28;20053;-93
2023/01/08 05:58:56;;;;;;;0.50;0.50;;;;;;;;;;5054436;28;20045;-94
2023/01/08 06:01:23;;;;;;;1.90;1.80;;;;;;;;;;5054826;28;20049;-96
2023/01/08 06:03:49;;;;;;;1.30;1.25;;;;;;;;;;5053675;28;20041;-90
2023/01/08 06:06:17;;;;;;;1.45;1.05;;;;;;;;;;5053533;28;20496;-93
2023/01/08 06:08:44;;;;;;;1.25;0.93;;;;;;;;;;5053882;28;20095;-94
2023/01/08 06:11:11;;;;;;;0.57;0.57;;;;;;;;;;5053866;28;20099;-93
2023/01/08 06:13:37;;;;;;;0.35;0.35;;;;;;;;;;5053830;28;20128;-94
2023/01/08 06:16:04;;;;;;;2.75;2.55;;;;;;;;;;5053617;28;20088;-93
2023/01/08 06:18:31;;;;;;;3.33;3.13;;;;;;;;;;5053747;28;20056;-92
2023/01/08 06:20:57;;;;;;;0.80;0.73;;;;;;;;;;5053578;28;20497;-93
2023/01/08 06:23:25;;;;;;;1.40;1.30;;;;;;;;;;5054251;28;20049;-93
2023/01/08 06:25:52;;;;;;;2.00;1.85;;;;;;;;;;5053846;28;20057;-93
2023/01/08 06:28:19;;;;;;;1.95;1.85;;;;;;;;;;5053121;28;20132;-91
2023/01/08 06:30:45;;;;;;;2.30;1.77;;;;;;;;;;5050134;28;20057;-91
2023/01/08 06:33:12;;;;;;;1.55;1.45;;;;;;;;;;5034097;28;20050;-91
2023/01/08 06:35:38;;;;;;;1.15;1.13;;;;;;;;;;5052469;28;20041;-95
2023/01/08 06:38:05;;;;;;;4.30;4.07;;;;;;;;;;5051670;28;20099;-91
2023/01/08 06:40:32;;;;;;;5.38;5.05;;;;;;;;;;5055762;28;20467;-91
2023/01/08 06:43:01;;;;;;;1.52;1.42;;;;;;;;;;5055024;28;20049;-91
2023/01/08 06:45:27;;;;;;;1.45;1.35;;;;;;;;;;5057453;28;20459;-91
2023/01/08 06:47:54;;;;;;;2.00;1.90;;;;;;;;;;5057356;28;20041;-91
2023/01/08 06:50:20;;;;;;;1.35;1.35;;;;;;;;;;5056829;28;20342;-91
2023/01/08 06:52:52;;;;;;;1.33;1.33;;;;;;;;;;5057276;28;20045;-91
2023/01/08 06:55:19;;;;;;;1.30;1.25;;;;;;;;;;5057215;28;20095;-91
2023/01/08 06:57:47;;;;;;;2.10;2.00;;;;;;;;;;5056941;28;20052;-91
2023/01/08 07:00:14;;;;;;;1.17;1.15;;;;;;;;;;5040866;28;20053;-91
2023/01/08 07:02:40;;;;;;;1.10;1.10;;;;;;;;;;5054457;28;20055;-91
2023/01/08 07:05:07;;;;;;;1.85;1.70;;;;;;;;;;5056470;28;20055;-91
2023/01/08 07:07:33;;;;;;;0.68;0.68;;;;;;;;;;5056431;28;20808;-91
2023/01/08 07:10:00;;;;;;;1.77;1.67;;;;;;;;;;5056571;28;20052;-91
2023/01/08 07:12:27;;;;;;;1.77;1.67;;;;;;;;;;5056752;28;20457;-91
2023/01/08 07:14:55;;;;;;;1.52;1.42;;;;;;;;;;5056456;28;20049;-91
2023/01/08 07:17:21;;;;;;;3.20;1.88;;;;;;;;;;5056334;28;20048;-92
2023/01/08 07:19:48;;;;;;;1.38;1.30;;;;;;;;;;5055832;28;20053;-91
2023/01/08 07:22:14;;;;;;;1.90;1.80;;;;;;;;;;5056636;28;20045;-91
2023/01/08 07:24:41;;;;;;;1.10;1.05;;;;;;;;;;5056510;28;20057;-91
2023/01/08 07:27:07;;;;;;;8.82;3.17;;;;;;;;;;5056598;28;20339;-92
2023/01/08 07:29:34;;;;;;;2.53;2.42;;;;;;;;;;5056337;28;20087;-91
2023/01/08 07:32:02;;;;;;;1.77;1.67;;;;;;;;;;5056107;28;20057;-91
2023/01/08 07:34:28;;;;;;;1.63;1.52;;;;;;;;;;5055967;28;20044;-92
2023/01/08 07:36:55;;;;;;;0.90;0.90;;;;;;;;;;5055403;28;20100;-92
2023/01/08 07:39:21;;;;;;;0.82;0.82;;;;;;;;;;5055958;28;20119;-91
2023/01/08 07:41:48;;;;;;;2.20;2.08;;;;;;;;;;5056024;28;20610;-92
2023/01/08 07:44:15;;;;;;;1.98;1.88;;;;;;;;;;5056105;28;20095;-92
2023/01/08 07:46:41;;;;;;;1.95;1.85;;;;;;;;;;5055624;28;20099;-92
2023/01/08 07:49:09;;;;;;;1.23;1.13;;;;;;;;;;5055940;28;20056;-92
2023/01/08 07:51:35;;;;;;;1.55;1.45;;;;;;;;;;5055832;28;20048;-91
2023/01/08 07:54:02;;;;;;;0.77;0.77;;;;;;;;;;5055515;28;20045;-91
2023/01/08 07:56:28;;;;;;;1.45;1.35;;;;;;;;;;5054444;28;20465;-91
2023/01/08 07:58:55;;;;;;;4.03;3.72;;;;;;;;;;5054986;28;20045;-90
2023/01/08 08:01:22;;;;;;;1.38;1.30;;;;;;;;;;5055248;28;20110;-89
2023/01/08 08:03:49;;;;;;;1.15;1.13;;;;;;;;;;5055234;28;20045;-89
2023/01/08 08:06:17;;;;;;;2.92;1.40;;;;;;;;;;5055157;28;20053;-89
2023/01/08 08:08:43;;;;;;;2.50;1.88;;;;;;;;;;5054780;28;20107;-89
2023/01/08 08:11:10;;;;;;;2.30;1.95;;;;;;;;;;5054070;28;20102;-89
2023/01/08 08:13:41;;;;;;;1.17;1.15;;;;;;;;;;5054757;28;20072;-89
2023/01/08 08:16:08;;;;;;;4.13;3.83;;;;;;;;;;5054638;28;20056;-88
2023/01/08 08:18:34;;;;;;;3.13;2.85;;;;;;;;;;5054673;28;20052;-89
2023/01/08 08:21:01;;;;;;;2.70;2.60;;;;;;;;;;5054892;28;20475;-89
2023/01/08 08:23:31;;;;;;;1.67;1.58;;;;;;;;;;5054550;28;20068;-88
2023/01/08 08:25:57;;;;;;;1.70;1.60;;;;;;;;;;5054946;28;20053;-89
2023/01/08 08:28:24;;;;;;;1.42;1.38;;;;;;;;;;5053959;28;20049;-91
2023/01/08 08:30:51;;;;;;;4.20;3.80;;;;;;;;;;5051980;28;20496;-89
2023/01/08 08:33:17;;;;;;;2.00;1.90;;;;;;;;;;5054158;28;20045;-89
2023/01/08 08:35:48;;;;;;;2.40;2.00;;;;;;;;;;5054471;28;20045;-89
2023/01/08 08:38:14;;;;;;;1.58;1.48;;;;;;;;;;5054529;28;20623;-89
2023/01/08 08:40:43;;;;;;;4.93;1.58;;;;;;;;;;5054687;28;20057;-89
2023/01/08 08:43:09;;;;;;;4.15;3.95;;;;;;;;;;5054237;28;20397;-90
2023/01/08 08:45:36;;;;;;;5.60;2.28;;;;;;;;;;5054058;28;20124;-90
2023/01/08 08:48:05;;;;;;;2.80;2.60;;;;;;;;;;5054428;28;20044;-91
2023/01/08 08:50:31;;;;;;;2.70;2.53;;;;;;;;;;5054691;28;20057;-91
2023/01/08 08:52:59;;;;;;;2.17;2.03;;;;;;;;;;5054345;28;20048;-91
2023/01/08 08:55:25;;;;;;;2.65;2.28;;;;;;;;;;5054820;28;20125;-91
2023/01/08 08:57:53;;;;;;;6.45;3.28;;;;;;;;;;5053688;28;20045;-91
2023/01/08 09:00:20;;;;;;;5.72;5.22;;;;;;;;;;5054213;28;20455;-91
2023/01/08 09:02:49;;;;;;;2.35;2.25;;;;;;;;;;5053885;28;20114;-91
2023/01/08 09:05:15;;;;;;;3.90;3.53;;;;;;;;;;5054216;28;20061;-91
2023/01/08 09:07:42;;;;;;;4.95;3.38;;;;;;;;;;5054469;28;20463;-91
2023/01/08 09:10:08;;;;;;;18.70;5.13;;;;;;;;;;5045266;28;20050;-91
2023/01/08 09:12:35;;;;;;;2.00;1.90;;;;;;;;;;5052841;28;20056;-91
2023/01/08 09:15:03;;;;;;;1.38;1.33;;;;;;;;;;5054299;28;20091;-91
2023/01/08 09:17:30;;;;;;;4.28;3.97;;;;;;;;;;5054385;28;20051;-91
2023/01/08 09:19:57;;;;;;;17.38;3.47;;;;;;;;;;5053822;28;20162;-91
2023/01/08 09:22:23;;;;;;;0.75;0.75;;;;;;;;;;5054198;28;20103;-92
2023/01/08 09:24:50;;;;;;;1.23;1.15;;;;;;;;;;5054177;28;20053;-91
2023/01/08 09:27:16;;;;;;;3.13;2.85;;;;;;;;;;5054512;28;20448;-89
2023/01/08 09:29:43;;;;;;;4.85;4.45;;;;;;;;;;5053590;28;20049;-89
2023/01/08 09:32:11;;;;;;;5.18;4.78;;;;;;;;;;5053923;28;20382;-88
2023/01/08 09:34:37;;;;;;;1.13;1.13;;;;;;;;;;5053711;28;20493;-88
2023/01/08 09:37:04;;;;;;;1.45;1.38;;;;;;;;;;5053730;28;20095;-89
2023/01/08 09:39:30;;;;;;;3.50;3.17;;;;;;;;;;5053398;28;20053;-88
2023/01/08 09:41:58;;;;;;;5.75;4.68;;;;;;;;;;5053681;28;20090;-89
2023/01/08 09:44:27;;;;;;;4.15;2.65;;;;;;;;;;5053323;28;20095;-90
2023/01/08 09:46:56;;;;;;;3.38;3.15;;;;;;;;;;5052507;28;20045;-90
2023/01/08 09:49:27;;;;;;;1.58;1.50;;;;;;;;;;5045259;28;20162;-90
2023/01/08 09:51:54;;;;;;;5.03;3.35;;;;;;;;;;5053158;28;20091;-90
2023/01/08 09:54:21;;;;;;;6.28;5.22;;;;;;;;;;5053455;28;20049;-89
2023/01/08 09:56:47;;;;;;;3.03;2.78;;;;;;;;;;5033194;28;20049;-90
2023/01/08 09:59:16;;;;;;;4.13;3.53;;;;;;;;;;5033661;28;20057;-90
2023/01/08 10:01:43;;;;;;;6.90;6.50;;;;;;;;;;5033441;28;20452;-90
2023/01/08 10:04:13;;;;;;;8.07;5.57;;;;;;;;;;5043168;28;20690;-90
2023/01/08 10:06:46;;;;;;;8.45;6.35;;;;;;;;;;5053234;28;20045;-90
2023/01/08 10:09:14;;;;;;;2.20;2.10;;;;;;;;;;5053068;28;20179;-90
2023/01/08 10:11:41;;;;;;;5.28;4.13;;;;;;;;;;5053273;28;20053;-90
2023/01/08 10:14:15;;;;;;;7.30;4.47;;;;;;;;;;5053116;28;20091;-90
2023/01/08 10:16:43;;;;;;;4.15;2.72;;;;;;;;;;5053086;28;20122;-90
2023/01/08 10:19:10;;;;;;;12.68;5.60;;;;;;;;;;5053096;28;20511;-90
2023/01/08 10:21:39;;;;;;;8.50;7.80;;;;;;;;;;5052317;28;20056;-89
2023/01/08 10:24:07;;;;;;;3.35;1.85;;;;;;;;;;5053183;28;20045;-89
2023/01/08 10:26:36;;;;;;;5.30;4.78;;;;;;;;;;5053175;28;20106;-90
2023/01/08 10:29:06;;;;;;;6.03;5.32;;;;;;;;;;5052918;28;20084;-90
2023/01/08 10:31:33;;;;;;;5.35;5.05;;;;;;;;;;5053706;28;20126;-90
2023/01/08 10:34:08;;;;;;;9.35;7.80;;;;;;;;;;5053409;28;20053;-90
2023/01/08 10:36:39;;;;;;;3.92;3.60;;;;;;;;;;5053318;28;20049;-90
2023/01/08 10:39:07;;;;;;;5.68;5.13;;;;;;;;;;5052140;28;20488;-90
2023/01/08 10:41:38;;;;;;;12.38;5.90;;;;;;;;;;5052764;28;20048;-90
2023/01/08 10:44:06;;;;;;;5.15;4.63;;;;;;;;;;5053266;28;20049;-90
2023/01/08 10:46:36;;;;;;;6.30;5.72;;;;;;;;;;5053218;28;20076;-90
2023/01/08 10:49:03;;;;;;;2.70;2.50;;;;;;;;;;5053040;28;20102;-91
2023/01/08 10:51:31;;;;;;;3.58;3.33;;;;;;;;;;5053094;28;20107;-91
2023/01/08 10:53:59;;;;;;;5.50;4.57;;;;;;;;;;5056125;28;20049;-91
2023/01/08 10:56:28;;;;;;;2.38;2.25;;;;;;;;;;5050631;28;20048;-92
2023/01/08 10:58:54;;;;;;;1.73;1.63;;;;;;;;;;5052717;28;20099;-91
2023/01/08 11:01:23;;;;;;;3.90;3.47;;;;;;;;;;5053017;28;20048;-91
2023/01/08 11:03:50;;;;;;;5.18;4.70;;;;;;;;;;5053217;28;20053;-91
2023/01/08 11:06:20;;;;;;;5.18;4.40;;;;;;;;;;5052757;28;20053;-91
2023/01/08 11:08:49;;;;;;;3.75;3.40;;;;;;;;;;5053050;28;20049;-91
2023/01/08 11:11:16;;;;;;;3.85;3.55;;;;;;;;;;5052956;28;20057;-92
2023/01/08 11:13:51;;;;;;;5.53;3.80;;;;;;;;;;5052279;28;20500;-93
2023/01/08 11:16:18;;;;;;;8.05;3.15;;;;;;;;;;5052674;28;20666;-91
2023/01/08 11:18:46;;;;;;;2.67;2.47;;;;;;;;;;5052809;28;20049;-92
2023/01/08 11:21:19;;;;;;;4.32;4.03;;;;;;;;;;5053220;28;20114;-92
2023/01/08 11:23:46;;;;;;;3.22;2.80;;;;;;;;;;5056353;28;20489;-91
2023/01/08 11:26:15;;;;;;;5.75;4.32;;;;;;;;;;5056656;28;20059;-91
2023/01/08 11:28:52;;;;;;;5.05;3.65;;;;;;;;;;5056265;28;20045;-90
2023/01/08 11:31:21;;;;;;;3.13;2.90;;;;;;;;;;5055881;28;20049;-90
2023/01/08 11:33:53;;;;;;;6.88;3.47;;;;;;;;;;5056489;28;20455;-91
2023/01/08 11:36:23;;;;;;;4.38;4.10;;;;;;;;;;5056001;28;20412;-91
2023/01/08 11:38:50;;;;;;;3.60;3.40;;;;;;;;;;5055943;28;20448;-91
2023/01/08 11:41:22;;;;;;;3.97;2.42;;;;;;;;;;5055788;28;20489;-91
2023/01/08 11:43:57;;;;;;;2.72;2.50;;;;;;;;;;5056483;28;20095;-91
2023/01/08 11:46:30;;;;;;;3.47;3.17;;;;;;;;;;5051610;28;20049;-92
2023/01/08 11:49:03;;;;;;;2.63;2.42;;;;;;;;;;5055221;28;20111;-91
2023/01/08 11:51:35;;;;;;;4.82;4.10;;;;;;;;;;5055960;28;20048;-92
2023/01/08 11:54:05;;;;;;;2.90;2.70;;;;;;;;;;5055884;28;20044;-92
2023/01/08 11:56:39;;;;;;;4.07;3.75;;;;;;;;;;5055950;28;20044;-92
2023/01/08 11:59:12;;;;;;;3.17;3.00;;;;;;;;;;5055976;28;20690;-92
2023/01/08 12:01:46;;;;;;;6.93;2.97;;;;;;;;;;5055875;28;20479;-93
2023/01/08 12:04:21;;;;;;;2.88;2.65;;;;;;;;;;5056115;28;20048;-92
2023/01/08 12:06:48;;;;;;;1.05;0.95;;;;;;;;;;5054903;28;20489;-92
2023/01/08 12:09:18;;;;;;;3.42;3.13;;;;;;;;;;5055666;28;20045;-92
2023/01/08 12:11:50;;;;;;;2.60;2.47;;;;;;;;;;5055928;28;20124;-93
2023/01/08 12:14:28;;;;;;;5.28;3.70;;;;;;;;;;5055679;28;20099;-93
2023/01/08 12:17:04;;;;;;;3.20;3.00;;;;;;;;;;5055299;28;20048;-93
2023/01/08 12:19:37;;;;;;;4.03;3.50;;;;;;;;;;5055935;28;20053;-92
2023/01/08 12:22:08;;;;;;;3.63;3.30;;;;;;;;;;5053824;28;20053;-92
2023/01/08 12:24:43;;;;;;;3.45;2.97;;;;;;;;;;5035867;28;20076;-93
2023/01/08 12:27:16;;;;;;;3.08;2.85;;;;;;;;;;5035321;28;20046;-92
2023/01/08 12:29:51;;;;;;;6.70;6.30;;;;;;;;;;5035498;28;20107;-92
2023/01/08 12:32:22;;;;;;;6.10;5.80;;;;;;;;;;5034586;28;20398;-93
2023/01/08 12:34:53;;;;;;;5.00;2.78;;;;;;;;;;5034449;28;20053;-91
2023/01/08 12:37:23;;;;;;;5.90;4.18;;;;;;;;;;5035225;28;20095;-91
2023/01/08 12:39:52;;;;;;;3.63;3.35;;;;;;;;;;5040052;28;20118;-91
2023/01/08 12:42:23;;;;;;;3.78;3.47;;;;;;;;;;5035184;28;20053;-91
2023/01/08 12:44:51;;;;;;;2.80;2.60;;;;;;;;;;5035317;28;20049;-91
2023/01/08 12:47:21;;;;;;;4.57;4.25;;;;;;;;;;5034864;28;20053;-91
2023/01/08 12:49:50;;;;;;;4.40;3.83;;;;;;;;;;5034470;28;20515;-92
2023/01/08 12:52:20;;;;;;;4.97;4.68;;;;;;;;;;5034746;28;20081;-91
2023/01/08 12:54:50;;;;;;;7.75;5.68;;;;;;;;;;5035040;28;20107;-91
2023/01/08 12:57:17;;;;;;;4.80;3.92;;;;;;;;;;5052305;28;20057;-90
2023/01/08 12:59:46;;;;;;;6.70;6.28;;;;;;;;;;5034811;28;20049;-91
2023/01/08 13:02:33;;;;;;;4.72;3.85;;;;;;;;;;5034720;28;20096;-90
2023/01/08 13:05:10;;;;;;;5.90;5.28;;;;;;;;;;5034734;28;20049;-90
2023/01/08 13:07:38;;;;;;;6.90;5.20;;;;;;;;;;5050612;28;20048;-91
2023/01/08 13:10:06;;;;;;;3.83;3.50;;;;;;;;;;5054370;28;20053;-91
2023/01/08 13:12:34;;;;;;;4.97;4.65;;;;;;;;;;5044797;28;20041;-92
2023/01/08 13:15:01;;;;;;;5.50;5.07;;;;;;;;;;5054257;28;20122;-92
2023/01/08 13:17:29;;;;;;;6.15;5.60;;;;;;;;;;5053751;28;20480;-92
2023/01/08 13:19:59;;;;;;;6.50;4.03;;;;;;;;;;5054073;28;20489;-91
2023/01/08 13:22:27;;;;;;;4.45;4.13;;;;;;;;;;5054199;28;20116;-91
2023/01/08 13:25:08;;;;;;;8.50;5.80;;;;;;;;;;5054353;28;20053;-92
2023/01/08 13:27:34;;;;;;;5.78;5.20;;;;;;;;;;5054378;28;20459;-91
2023/01/08 13:30:01;;;;;;;6.85;6.22;;;;;;;;;;5053453;28;20048;-91
2023/01/08 13:32:44;;;;;;;5.93;5.47;;;;;;;;;;5053774;28;20080;-90
2023/01/08 13:35:22;;;;;;;8.43;7.63;;;;;;;;;;5053629;28;20063;-90
2023/01/08 13:37:50;;;;;;;8.32;7.70;;;;;;;;;;5053792;28;20049;-93
2023/01/08 13:40:31;;;;;;;6.60;6.00;;;;;;;;;;5053841;28;20048;-93
2023/01/08 13:42:59;;;;;;;6.90;6.32;;;;;;;;;;5051276;28;20056;-92
2023/01/08 13:45:27;;;;;;;5.88;5.00;;;;;;;;;;5052522;28;20045;-92
2023/01/08 13:47:55;;;;;;;7.18;5.63;;;;;;;;;;5037215;28;20057;-92
2023/01/08 13:50:24;;;;;;;5.75;5.10;;;;;;;;;;5033983;28;20107;-92
2023/01/08 13:52:56;;;;;;;4.00;3.65;;;;;;;;;;5033633;28;20091;-92
2023/01/08 13:55:27;;;;;;;9.68;5.65;;;;;;;;;;5033606;28;20049;-93
2023/01/08 13:57:55;;;;;;;4.53;4.13;;;;;;;;;;5049722;28;20106;-91
2023/01/08 14:00:23;;;;;;;5.82;5.38;;;;;;;;;;5053656;28;20048;-91
2023/01/08 14:02:50;;;;;;;6.70;6.15;;;;;;;;;;5052299;28;20063;-91
2023/01/08 14:05:24;;;;;;;7.72;6.25;;;;;;;;;;5053193;28;20048;-91
2023/01/08 14:07:50;;;;;;;4.75;4.45;;;;;;;;;;5038067;28;20041;-91
2023/01/08 14:10:17;;;;;;;6.35;5.90;;;;;;;;;;5033593;28;20050;-91
2023/01/08 14:12:44;;;;;;;6.20;5.80;;;;;;;;;;5033677;28;20058;-91
2023/01/08 14:15:17;;;;;;;7.55;5.88;;;;;;;;;;5033370;28;20390;-91
2023/01/08 14:17:44;;;;;;;4.93;4.28;;;;;;;;;;5046781;28;20057;-92
2023/01/08 14:20:11;;;;;;;7.22;5.53;;;;;;;;;;5052394;28;20040;-91
2023/01/08 14:22:41;;;;;;;9.20;4.78;;;;;;;;;;5040581;28;20635;-91
2023/01/08 14:25:08;;;;;;;9.05;4.97;;;;;;;;;;5033122;28;20057;-90
2023/01/08 14:27:35;;;;;;;5.18;4.78;;;;;;;;;;5033548;28;20053;-90
2023/01/08 14:30:01;;;;;;;6.38;5.88;;;;;;;;;;5033299;28;20060;-90
2023/01/08 14:32:29;;;;;;;4.60;4.20;;;;;;;;;;5033071;28;20497;-91
2023/01/08 14:34:56;;;;;;;6.57;4.50;;;;;;;;;;5033088;28;20081;-93
2023/01/08 14:37:23;;;;;;;8.07;5.15;;;;;;;;;;5047436;28;20053;-91
2023/01/08 14:39:51;;;;;;;8.80;4.40;;;;;;;;;;5052802;28;20048;-91
2023/01/08 14:45:05;;;;;;;3.47;3.20;;;;;;;;;;5053182;28;20175;-90
2023/01/08 14:47:34;;;;;;;5.63;5.13;;;;;;;;;;5053287;28;20106;-90
2023/01/08 14:50:01;;;;;;;4.82;4.47;;;;;;;;;;5053435;28;20061;-90
2023/01/08 14:52:27;;;;;;;6.20;4.20;;;;;;;;;;5052457;28;20041;-91
2023/01/08 14:54:58;;;;;;;5.90;4.10;;;;;;;;;;5051946;28;20091;-90
2023/01/08 14:57:25;;;;;;;5.38;4.97;;;;;;;;;;5054984;28;20049;-90
2023/01/08 14:59:53;;;;;;;6.57;4.68;;;;;;;;;;5056684;28;20049;-90
2023/01/08 15:02:23;;;;;;;6.50;6.00;;;;;;;;;;5056644;28;20102;-91
2023/01/08 15:05:00;;;;;;;7.78;6.55;;;;;;;;;;5057070;28;20049;-91
2023/01/08 15:07:26;;;;;;;7.20;6.63;;;;;;;;;;5048360;28;20046;-90
2023/01/08 15:09:58;;;;;;;3.58;3.38;;;;;;;;;;5048893;28;20057;-90
2023/01/08 15:12:26;;;;;;;5.72;5.25;;;;;;;;;;5056415;28;20509;-89
2023/01/08 15:14:54;;;;;;;12.55;4.75;;;;;;;;;;5056628;28;20056;-90
2023/01/08 15:17:21;;;;;;;3.80;3.53;;;;;;;;;;5049829;28;20099;-89
2023/01/08 15:19:49;;;;;;;2.35;2.15;;;;;;;;;;5036934;28;20448;-90
2023/01/08 15:22:18;;;;;;;7.82;5.30;;;;;;;;;;5036506;28;20115;-91
2023/01/08 15:24:50;;;;;;;2.63;2.42;;;;;;;;;;5036886;28;20057;-90
2023/01/08 15:27:19;;;;;;;5.93;5.50;;;;;;;;;;5051434;28;20412;-89
2023/01/08 15:29:48;;;;;;;2.95;2.75;;;;;;;;;;5057140;28;20040;-90
2023/01/08 15:32:20;;;;;;;2.80;2.50;;;;;;;;;;5055942;28;20106;-89
2023/01/08 15:34:47;;;;;;;2.28;2.17;;;;;;;;;;5056508;28;20102;-90
2023/01/08 15:37:14;;;;;;;3.03;2.83;;;;;;;;;;5056239;28;20114;-90
2023/01/08 15:39:41;;;;;;;5.45;5.18;;;;;;;;;;5055807;28;20405;-90
2023/01/08 15:44:58;;;;;;;2.05;1.90;;;;;;;;;;5055542;28;20130;-90
2023/01/08 15:47:25;;;;;;;6.03;3.78;;;;;;;;;;5058444;28;20049;-91
2023/01/08 15:49:53;;;;;;;3.78;2.90;;;;;;;;;;5055522;28;20099;-90
2023/01/08 15:52:22;;;;;;;3.53;2.97;;;;;;;;;;5055994;28;20045;-90
2023/01/08 15:54:48;;;;;;;2.08;1.95;;;;;;;;;;5055983;28;20045;-90
2023/01/08 15:57:15;;;;;;;5.05;3.17;;;;;;;;;;5055919;28;20052;-90
2023/01/08 15:59:41;;;;;;;5.35;3.97;;;;;;;;;;5055064;28;20095;-90
2023/01/08 16:02:11;;;;;;;2.65;2.45;;;;;;;;;;5055313;28;20590;-89
2023/01/08 16:04:37;;;;;;;2.35;2.25;;;;;;;;;;5055636;28;20102;-89
2023/01/08 16:07:05;;;;;;;3.78;3.47;;;;;;;;;;5055428;28;20053;-90
2023/01/08 16:09:31;;;;;;;5.13;3.83;;;;;;;;;;5055311;28;20091;-89
2023/01/08 16:11:58;;;;;;;4.30;3.80;;;;;;;;;;5055324;28;20049;-89
2023/01/08 16:14:24;;;;;;;2.42;2.30;;;;;;;;;;5055228;28;20071;-89
2023/01/08 16:16:51;;;;;;;6.35;5.85;;;;;;;;;;5054753;28;20056;-89
2023/01/08 16:19:19;;;;;;;6.68;5.85;;;;;;;;;;5054680;28;20041;-90
2023/01/08 16:21:45;;;;;;;5.65;5.15;;;;;;;;;;5055106;28;20045;-90
2023/01/08 16:24:12;;;;;;;4.50;4.13;;;;;;;;;;5054847;28;20059;-90
2023/01/08 16:26:39;;;;;;;18.90;7.75;;;;;;;;;;5055137;28;20107;-89
2023/01/08 16:29:05;;;;;;;9.52;5.78;;;;;;;;;;5054737;28;20488;-90
2023/01/08 16:31:31;;;;;;;5.72;5.32;;;;;;;;;;5052589;28;20041;-90
2023/01/08 16:34:01;;;;;;;4.65;4.32;;;;;;;;;;5054693;28;20099;-88
2023/01/08 16:36:29;;;;;;;10.82;5.40;;;;;;;;;;5054785;28;20045;-90
2023/01/08 16:38:55;;;;;;;4.38;3.83;;;;;;;;;;5039242;28;20382;-90
2023/01/08 16:41:22;;;;;;;9.65;5.90;;;;;;;;;;5034986;28;20449;-89
2023/01/08 16:43:48;;;;;;;6.45;5.95;;;;;;;;;;5034620;28;20050;-89